Bismarck, ND

1:06 PM CDT on March 28, 2015 (GMT -0500)
Highland Acres | | Change Station
CLOSE
Current Station
Personal Weather Station
Location: Bismarck, ND
Elevation: 1713 ft
Nearby Weather Stations
Active Advisory: Wind Advisory

Elev 1713 ft 46.81 °N, 100.81 °W | Updated 5 minutes ago

Clear
Clear
52.3 °F
Feels Like 52.3 °F
N
7.8
Wind Variable Wind from SSE

Today
High -- | Low -- °F
--% Chance of Precip.
Yesterday
High -- | Low -- °F
Precip. -- in
7:30 AM 8:06 PM
Waxing Gibbous, 64% visible
Pressure 29.84 in
Visibility 10.0 miles
Clouds Clear
Dew Point 37 °F
Humidity 56%
Rainfall 0.00 in
Snow Depth Not available.
UV 6 out of 12
Pollen 4.80 out of 12
Air Quality Not available.
Flu Activity Not available.
METAR KBIS 281752Z 17014KT 10SM CLR 12/01 A2981 RMK AO2 PRESFR SLP105 I6007 T01220011 10122 21022 58039

More Conditions Fewer Conditions

Pressure 29.84 in
Visibility 10.0 miles
Clouds Clear
Dew Point 37 °F
Humidity 56%
Rainfall 0.00 in
Snow Depth Not available.
UV 6 out of 12
Pollen 4.80 out of 12
Air Quality Not available.
Flu Activity Not available.
METAR KBIS 281752Z 17014KT 10SM CLR 12/01 A2981 RMK AO2 PRESFR SLP105 I6007 T01220011 10122 21022 58039

More Conditions Fewer Conditions

10-Day Weather Forecast

Almanac

Astronomy

Mar. 28, 2015 Rise Set
Actual Time
Civil Twilight
Nautical Twilight
Astronomical Twilight
Moon
Length of Visible Light
Length of Day
Tomorrow will be .
, % of the Moon is Illuminated

Today's Extremes

State Highs State Lows

Community

WunderPhotos

Upload Photos

1,809,042 photos uploaded!

WunderBlogs® & News

Nearby

Air Quality

  Air Quality AQ Index Pollutant
Not available.

Snow Depth

Station Depth Elevation

Earthquake Activity

City Distance Mag. Time & Date
Minimum magnitude displayed is 2.5.

Coastal Water Temperatures

Place Temperature

Stations

Nearby Weather Stations

Station Location Temp. Windchill Dew Point Humidity Wind Precip. Elev Updated Type
                   
Wind Advisory
Statement as of 11:26 AM CDT on March 28, 2015

... Wind Advisory remains in effect from 1 am to 7 am CDT Sunday...

* timing... late tonight through early Sunday morning.

* Winds... sustained northwest winds around 30 mph with gusts
around 40 mph.

* Impacts... difficult driving conditions for high profile
vehicles. Difficult outdoor working conditions.

Precautionary/preparedness actions...

A Wind Advisory means that sustained winds of 30 to 40 mph... and
or gusts under 58 mph... are expected. Winds this strong can make
driving difficult... especially for high profile vehicles. Use
extra caution.